sensor_id;sensor_type;location;lat;lon;timestamp;temperature;humidity
36292;DHT22;22327;51.208;6.418;2023-07-29T00:00:04;22.50;99.90
36292;DHT22;22327;51.208;6.418;2023-07-29T00:03:05;22.50;99.90
36292;DHT22;22327;51.208;6.418;2023-07-29T00:06:05;22.50;99.90
36292;DHT22;22327;51.208;6.418;2023-07-29T00:09:06;22.50;99.90
36292;DHT22;22327;51.208;6.418;2023-07-29T00:12:07;22.60;99.90
36292;DHT22;22327;51.208;6.418;2023-07-29T00:15:08;22.70;99.90
36292;DHT22;22327;51.208;6.418;2023-07-29T00:18:08;22.80;99.90
36292;DHT22;22327;51.208;6.418;2023-07-29T00:21:09;22.90;99.90
36292;DHT22;22327;51.208;6.418;2023-07-29T00:24:09;22.90;99.90
36292;DHT22;22327;51.208;6.418;2023-07-29T00:27:10;22.90;99.90
36292;DHT22;22327;51.208;6.418;2023-07-29T00:30:11;22.90;99.90
36292;DHT22;22327;51.208;6.418;2023-07-29T00:33:11;22.90;99.90
36292;DHT22;22327;51.208;6.418;2023-07-29T00:36:12;23.00;99.90
36292;DHT22;22327;51.208;6.418;2023-07-29T00:39:13;23.10;99.90
36292;DHT22;22327;51.208;6.418;2023-07-29T00:42:13;23.20;99.90
36292;DHT22;22327;51.208;6.418;2023-07-29T00:45:14;23.10;99.90
36292;DHT22;22327;51.208;6.418;2023-07-29T00:48:14;23.10;99.90
36292;DHT22;22327;51.208;6.418;2023-07-29T00:51:15;23.10;99.90
36292;DHT22;22327;51.208;6.418;2023-07-29T00:54:16;23.20;99.90
36292;DHT22;22327;51.208;6.418;2023-07-29T00:57:17;23.10;99.90
36292;DHT22;22327;51.208;6.418;2023-07-29T01:00:19;23.10;99.90
36292;DHT22;22327;51.208;6.418;2023-07-29T01:03:21;23.20;99.90
36292;DHT22;22327;51.208;6.418;2023-07-29T01:09:55;23.30;99.90
36292;DHT22;22327;51.208;6.418;2023-07-29T01:13:10;23.30;99.90
36292;DHT22;22327;51.208;6.418;2023-07-29T01:16:24;23.20;99.90
36292;DHT22;22327;51.208;6.418;2023-07-29T01:19:58;23.10;99.90
36292;DHT22;22327;51.208;6.418;2023-07-29T01:23:00;23.10;99.90
36292;DHT22;22327;51.208;6.418;2023-07-29T01:26:01;23.20;99.90
36292;DHT22;22327;51.208;6.418;2023-07-29T01:29:01;23.30;99.90
36292;DHT22;22327;51.208;6.418;2023-07-29T01:32:10;23.40;99.90
36292;DHT22;22327;51.208;6.418;2023-07-29T01:35:14;23.50;99.90
36292;DHT22;22327;51.208;6.418;2023-07-29T01:38:32;23.50;99.90
36292;DHT22;22327;51.208;6.418;2023-07-29T01:41:35;23.40;99.90
36292;DHT22;22327;51.208;6.418;2023-07-29T01:44:36;23.30;99.90
36292;DHT22;22327;51.208;6.418;2023-07-29T01:47:37;23.30;99.90
36292;DHT22;22327;51.208;6.418;2023-07-29T01:50:40;23.30;99.90
36292;DHT22;22327;51.208;6.418;2023-07-29T01:53:41;23.30;99.90
36292;DHT22;22327;51.208;6.418;2023-07-29T01:56:41;23.30;99.90
36292;DHT22;22327;51.208;6.418;2023-07-29T01:59:42;23.40;99.90
36292;DHT22;22327;51.208;6.418;2023-07-29T02:02:42;23.50;99.90
36292;DHT22;22327;51.208;6.418;2023-07-29T02:05:43;23.40;99.90
36292;DHT22;22327;51.208;6.418;2023-07-29T02:08:44;23.50;99.90
36292;DHT22;22327;51.208;6.418;2023-07-29T02:11:44;23.50;99.90
36292;DHT22;22327;51.208;6.418;2023-07-29T02:14:45;23.60;99.90
36292;DHT22;22327;51.208;6.418;2023-07-29T02:17:45;23.60;99.90
36292;DHT22;22327;51.208;6.418;2023-07-29T02:20:46;23.60;99.90
36292;DHT22;22327;51.208;6.418;2023-07-29T02:23:49;23.60;99.90
36292;DHT22;22327;51.208;6.418;2023-07-29T02:26:50;23.50;99.90
36292;DHT22;22327;51.208;6.418;2023-07-29T02:29:50;23.60;99.90
36292;DHT22;22327;51.208;6.418;2023-07-29T02:32:51;23.60;99.90
36292;DHT22;22327;51.208;6.418;2023-07-29T02:35:51;23.50;99.90
36292;DHT22;22327;51.208;6.418;2023-07-29T02:38:52;23.50;99.90
36292;DHT22;22327;51.208;6.418;2023-07-29T02:41:53;23.50;99.90
36292;DHT22;22327;51.208;6.418;2023-07-29T02:44:55;23.40;99.90
36292;DHT22;22327;51.208;6.418;2023-07-29T02:47:56;23.40;99.90
36292;DHT22;22327;51.208;6.418;2023-07-29T02:50:56;23.40;99.90
36292;DHT22;22327;51.208;6.418;2023-07-29T02:53:57;23.30;99.90
36292;DHT22;22327;51.208;6.418;2023-07-29T02:56:57;23.40;99.90
36292;DHT22;22327;51.208;6.418;2023-07-29T02:59:58;23.30;99.90
36292;DHT22;22327;51.208;6.418;2023-07-29T03:02:59;23.30;99.90
36292;DHT22;22327;51.208;6.418;2023-07-29T03:06:04;23.20;99.90
36292;DHT22;22327;51.208;6.418;2023-07-29T03:09:05;23.20;99.90
36292;DHT22;22327;51.208;6.418;2023-07-29T03:12:06;23.20;99.90
36292;DHT22;22327;51.208;6.418;2023-07-29T03:15:07;23.20;99.90
36292;DHT22;22327;51.208;6.418;2023-07-29T03:18:07;23.20;99.90
36292;DHT22;22327;51.208;6.418;2023-07-29T03:21:08;23.20;99.90
36292;DHT22;22327;51.208;6.418;2023-07-29T03:24:09;23.30;99.90
36292;DHT22;22327;51.208;6.418;2023-07-29T03:27:10;23.30;99.90
36292;DHT22;22327;51.208;6.418;2023-07-29T03:30:11;23.40;99.90
36292;DHT22;22327;51.208;6.418;2023-07-29T03:33:11;23.40;99.90
36292;DHT22;22327;51.208;6.418;2023-07-29T03:36:12;23.50;99.90
36292;DHT22;22327;51.208;6.418;2023-07-29T03:39:12;23.30;99.90
36292;DHT22;22327;51.208;6.418;2023-07-29T03:42:13;23.30;99.90
36292;DHT22;22327;51.208;6.418;2023-07-29T03:45:13;23.30;99.90
36292;DHT22;22327;51.208;6.418;2023-07-29T03:48:14;23.40;99.90
36292;DHT22;22327;51.208;6.418;2023-07-29T03:51:14;23.30;99.90
36292;DHT22;22327;51.208;6.418;2023-07-29T03:54:15;23.40;99.90
36292;DHT22;22327;51.208;6.418;2023-07-29T03:57:15;23.30;99.90
36292;DHT22;22327;51.208;6.418;2023-07-29T04:00:16;23.30;99.90
36292;DHT22;22327;51.208;6.418;2023-07-29T04:03:16;23.30;99.90
36292;DHT22;22327;51.208;6.418;2023-07-29T04:06:17;23.30;99.90
36292;DHT22;22327;51.208;6.418;2023-07-29T04:09:17;23.40;99.90
36292;DHT22;22327;51.208;6.418;2023-07-29T04:12:18;23.30;99.90
36292;DHT22;22327;51.208;6.418;2023-07-29T04:15:21;23.30;99.90
36292;DHT22;22327;51.208;6.418;2023-07-29T04:18:22;23.30;99.90
36292;DHT22;22327;51.208;6.418;2023-07-29T04:21:22;23.30;99.90
36292;DHT22;22327;51.208;6.418;2023-07-29T04:24:23;23.30;99.90
36292;DHT22;22327;51.208;6.418;2023-07-29T04:27:23;23.40;99.90
36292;DHT22;22327;51.208;6.418;2023-07-29T04:30:24;23.50;99.90
36292;DHT22;22327;51.208;6.418;2023-07-29T04:33:25;23.50;99.90
36292;DHT22;22327;51.208;6.418;2023-07-29T04:36:25;23.40;99.90
36292;DHT22;22327;51.208;6.418;2023-07-29T04:39:26;23.30;99.90
36292;DHT22;22327;51.208;6.418;2023-07-29T04:42:27;23.20;99.90
36292;DHT22;22327;51.208;6.418;2023-07-29T04:45:30;23.20;99.90
36292;DHT22;22327;51.208;6.418;2023-07-29T04:48:31;23.10;99.90
36292;DHT22;22327;51.208;6.418;2023-07-29T04:51:31;23.10;99.80
36292;DHT22;22327;51.208;6.418;2023-07-29T04:54:32;23.10;99.80
36292;DHT22;22327;51.208;6.418;2023-07-29T04:57:32;23.10;99.70
36292;DHT22;22327;51.208;6.418;2023-07-29T05:00:33;23.00;99.80
36292;DHT22;22327;51.208;6.418;2023-07-29T05:03:34;22.90;99.60
36292;DHT22;22327;51.208;6.418;2023-07-29T05:06:34;23.00;99.80
36292;DHT22;22327;51.208;6.418;2023-07-29T05:09:35;23.00;99.60
36292;DHT22;22327;51.208;6.418;2023-07-29T05:12:35;23.10;99.90
36292;DHT22;22327;51.208;6.418;2023-07-29T05:15:36;23.30;98.80
36292;DHT22;22327;51.208;6.418;2023-07-29T05:18:36;23.40;98.30
36292;DHT22;22327;51.208;6.418;2023-07-29T05:21:38;23.40;98.10
36292;DHT22;22327;51.208;6.418;2023-07-29T05:24:38;23.30;98.00
36292;DHT22;22327;51.208;6.418;2023-07-29T05:27:39;23.30;98.20
36292;DHT22;22327;51.208;6.418;2023-07-29T05:30:39;23.20;98.30
36292;DHT22;22327;51.208;6.418;2023-07-29T05:33:40;23.10;98.50
36292;DHT22;22327;51.208;6.418;2023-07-29T05:36:41;23.10;99.00
36292;DHT22;22327;51.208;6.418;2023-07-29T05:39:41;23.00;99.20
36292;DHT22;22327;51.208;6.418;2023-07-29T05:42:42;23.00;99.00
36292;DHT22;22327;51.208;6.418;2023-07-29T05:45:42;23.10;99.00
36292;DHT22;22327;51.208;6.418;2023-07-29T05:48:44;23.00;99.00
36292;DHT22;22327;51.208;6.418;2023-07-29T05:51:44;23.00;99.10
36292;DHT22;22327;51.208;6.418;2023-07-29T05:54:45;23.00;98.80
36292;DHT22;22327;51.208;6.418;2023-07-29T05:57:45;23.00;98.70
36292;DHT22;22327;51.208;6.418;2023-07-29T06:00:46;23.00;98.70
36292;DHT22;22327;51.208;6.418;2023-07-29T06:03:47;23.10;98.30
36292;DHT22;22327;51.208;6.418;2023-07-29T06:06:47;23.10;97.90
36292;DHT22;22327;51.208;6.418;2023-07-29T06:09:48;23.10;97.80
36292;DHT22;22327;51.208;6.418;2023-07-29T06:12:49;23.20;97.80
36292;DHT22;22327;51.208;6.418;2023-07-29T06:15:49;23.20;97.70
36292;DHT22;22327;51.208;6.418;2023-07-29T06:18:50;23.30;97.40
36292;DHT22;22327;51.208;6.418;2023-07-29T06:21:55;23.40;97.60
36292;DHT22;22327;51.208;6.418;2023-07-29T06:24:55;23.50;97.30
36292;DHT22;22327;51.208;6.418;2023-07-29T06:27:56;23.70;97.10
36292;DHT22;22327;51.208;6.418;2023-07-29T06:30:58;23.90;96.90
36292;DHT22;22327;51.208;6.418;2023-07-29T06:33:59;24.40;97.30
36292;DHT22;22327;51.208;6.418;2023-07-29T06:36:59;25.30;96.30
36292;DHT22;22327;51.208;6.418;2023-07-29T06:40:00;26.40;95.80
36292;DHT22;22327;51.208;6.418;2023-07-29T06:43:00;27.70;91.60
36292;DHT22;22327;51.208;6.418;2023-07-29T06:46:01;28.60;86.00
36292;DHT22;22327;51.208;6.418;2023-07-29T06:49:01;28.80;85.40
36292;DHT22;22327;51.208;6.418;2023-07-29T06:52:02;28.80;82.70
36292;DHT22;22327;51.208;6.418;2023-07-29T06:55:03;28.70;83.20
36292;DHT22;22327;51.208;6.418;2023-07-29T06:58:04;28.40;81.20
36292;DHT22;22327;51.208;6.418;2023-07-29T07:01:04;28.20;82.20
36292;DHT22;22327;51.208;6.418;2023-07-29T07:04:05;28.30;80.80
36292;DHT22;22327;51.208;6.418;2023-07-29T07:07:05;28.30;78.60
36292;DHT22;22327;51.208;6.418;2023-07-29T07:10:06;28.30;80.60
36292;DHT22;22327;51.208;6.418;2023-07-29T07:13:06;29.00;78.60
36292;DHT22;22327;51.208;6.418;2023-07-29T07:16:07;29.30;75.50
36292;DHT22;22327;51.208;6.418;2023-07-29T07:19:07;29.40;75.50
36292;DHT22;22327;51.208;6.418;2023-07-29T07:22:08;30.20;74.40
36292;DHT22;22327;51.208;6.418;2023-07-29T07:25:08;31.60;70.60
36292;DHT22;22327;51.208;6.418;2023-07-29T07:28:09;32.90;62.80
36292;DHT22;22327;51.208;6.418;2023-07-29T07:31:10;32.90;58.30
36292;DHT22;22327;51.208;6.418;2023-07-29T07:34:10;32.30;58.80
36292;DHT22;22327;51.208;6.418;2023-07-29T07:37:11;31.90;59.70
36292;DHT22;22327;51.208;6.418;2023-07-29T07:40:11;31.50;59.30
36292;DHT22;22327;51.208;6.418;2023-07-29T07:43:12;31.40;62.20
36292;DHT22;22327;51.208;6.418;2023-07-29T07:46:13;32.10;60.60
36292;DHT22;22327;51.208;6.418;2023-07-29T07:49:14;33.20;58.40
36292;DHT22;22327;51.208;6.418;2023-07-29T07:52:14;34.20;53.80
36292;DHT22;22327;51.208;6.418;2023-07-29T07:55:15;34.80;54.10
36292;DHT22;22327;51.208;6.418;2023-07-29T07:58:15;35.50;50.90
36292;DHT22;22327;51.208;6.418;2023-07-29T08:01:16;36.10;50.20
36292;DHT22;22327;51.208;6.418;2023-07-29T08:04:16;36.70;48.00
36292;DHT22;22327;51.208;6.418;2023-07-29T08:07:17;37.00;45.40
36292;DHT22;22327;51.208;6.418;2023-07-29T08:10:17;37.30;44.90
36292;DHT22;22327;51.208;6.418;2023-07-29T08:13:18;37.60;44.40
36292;DHT22;22327;51.208;6.418;2023-07-29T08:16:18;38.00;43.30
36292;DHT22;22327;51.208;6.418;2023-07-29T08:19:19;38.40;42.20
36292;DHT22;22327;51.208;6.418;2023-07-29T08:22:19;38.90;42.10
36292;DHT22;22327;51.208;6.418;2023-07-29T08:25:20;39.40;39.80
36292;DHT22;22327;51.208;6.418;2023-07-29T08:28:21;39.40;38.50
36292;DHT22;22327;51.208;6.418;2023-07-29T08:31:22;38.90;39.40
36292;DHT22;22327;51.208;6.418;2023-07-29T08:34:22;39.00;39.90
36292;DHT22;22327;51.208;6.418;2023-07-29T08:37:23;38.60;38.70
36292;DHT22;22327;51.208;6.418;2023-07-29T08:40:27;37.40;40.00
36292;DHT22;22327;51.208;6.418;2023-07-29T08:43:30;35.90;42.10
36292;DHT22;22327;51.208;6.418;2023-07-29T08:46:32;34.50;44.10
36292;DHT22;22327;51.208;6.418;2023-07-29T08:49:33;33.30;46.80
36292;DHT22;22327;51.208;6.418;2023-07-29T08:52:34;32.10;49.10
36292;DHT22;22327;51.208;6.418;2023-07-29T08:55:35;31.20;51.10
36292;DHT22;22327;51.208;6.418;2023-07-29T08:58:36;30.40;53.50
36292;DHT22;22327;51.208;6.418;2023-07-29T09:01:38;29.60;55.30
36292;DHT22;22327;51.208;6.418;2023-07-29T09:04:39;28.90;57.20
36292;DHT22;22327;51.208;6.418;2023-07-29T09:07:40;28.50;58.90
36292;DHT22;22327;51.208;6.418;2023-07-29T09:10:41;28.20;60.00
36292;DHT22;22327;51.208;6.418;2023-07-29T09:13:42;28.00;61.50
36292;DHT22;22327;51.208;6.418;2023-07-29T09:16:43;27.80;63.00
36292;DHT22;22327;51.208;6.418;2023-07-29T09:19:50;27.70;64.80
36292;DHT22;22327;51.208;6.418;2023-07-29T09:22:51;27.80;66.70
36292;DHT22;22327;51.208;6.418;2023-07-29T09:26:00;28.00;65.60
36292;DHT22;22327;51.208;6.418;2023-07-29T09:29:01;28.50;64.40
36292;DHT22;22327;51.208;6.418;2023-07-29T09:32:20;29.30;63.00
36292;DHT22;22327;51.208;6.418;2023-07-29T09:35:21;30.30;59.80
36292;DHT22;22327;51.208;6.418;2023-07-29T09:38:27;31.00;57.40
36292;DHT22;22327;51.208;6.418;2023-07-29T09:41:29;31.60;55.80
36292;DHT22;22327;51.208;6.418;2023-07-29T09:44:36;32.50;54.60
36292;DHT22;22327;51.208;6.418;2023-07-29T09:47:36;33.20;52.80
36292;DHT22;22327;51.208;6.418;2023-07-29T09:50:37;33.70;50.70
36292;DHT22;22327;51.208;6.418;2023-07-29T09:53:43;33.70;49.40
36292;DHT22;22327;51.208;6.418;2023-07-29T09:56:44;33.30;49.70
36292;DHT22;22327;51.208;6.418;2023-07-29T09:59:57;33.00;50.40
36292;DHT22;22327;51.208;6.418;2023-07-29T10:02:59;32.60;50.50
36292;DHT22;22327;51.208;6.418;2023-07-29T10:06:01;32.10;51.60
36292;DHT22;22327;51.208;6.418;2023-07-29T10:09:01;31.60;52.90
36292;DHT22;22327;51.208;6.418;2023-07-29T10:12:03;31.10;53.80
36292;DHT22;22327;51.208;6.418;2023-07-29T10:15:06;30.70;55.10
36292;DHT22;22327;51.208;6.418;2023-07-29T10:18:07;30.50;55.50
36292;DHT22;22327;51.208;6.418;2023-07-29T10:21:08;30.20;55.40
36292;DHT22;22327;51.208;6.418;2023-07-29T10:24:15;30.00;56.80
36292;DHT22;22327;51.208;6.418;2023-07-29T10:27:19;30.20;57.10
36292;DHT22;22327;51.208;6.418;2023-07-29T10:30:21;30.30;56.80
36292;DHT22;22327;51.208;6.418;2023-07-29T10:33:24;30.20;56.00
36292;DHT22;22327;51.208;6.418;2023-07-29T10:36:25;30.20;56.70
36292;DHT22;22327;51.208;6.418;2023-07-29T10:39:26;29.90;57.40
36292;DHT22;22327;51.208;6.418;2023-07-29T10:42:27;29.40;57.60
36292;DHT22;22327;51.208;6.418;2023-07-29T10:45:39;29.20;58.70
36292;DHT22;22327;51.208;6.418;2023-07-29T10:48:41;29.00;60.30
36292;DHT22;22327;51.208;6.418;2023-07-29T10:51:42;28.90;59.80
36292;DHT22;22327;51.208;6.418;2023-07-29T10:57:45;28.80;58.80
36292;DHT22;22327;51.208;6.418;2023-07-29T11:00:46;28.90;59.30
36292;DHT22;22327;51.208;6.418;2023-07-29T11:07:27;28.50;60.30
36292;DHT22;22327;51.208;6.418;2023-07-29T11:10:28;28.10;61.20
36292;DHT22;22327;51.208;6.418;2023-07-29T11:13:30;28.10;62.10
36292;DHT22;22327;51.208;6.418;2023-07-29T11:16:31;28.50;62.20
36292;DHT22;22327;51.208;6.418;2023-07-29T11:19:33;28.90;62.10
36292;DHT22;22327;51.208;6.418;2023-07-29T11:22:35;29.30;61.10
36292;DHT22;22327;51.208;6.418;2023-07-29T11:25:36;29.40;58.90
36292;DHT22;22327;51.208;6.418;2023-07-29T11:28:40;29.30;59.30
36292;DHT22;22327;51.208;6.418;2023-07-29T11:31:40;29.10;59.20
36292;DHT22;22327;51.208;6.418;2023-07-29T11:34:41;28.70;59.80
36292;DHT22;22327;51.208;6.418;2023-07-29T11:37:46;28.60;61.40
36292;DHT22;22327;51.208;6.418;2023-07-29T11:40:59;28.50;61.80
36292;DHT22;22327;51.208;6.418;2023-07-29T11:44:00;28.50;62.90
36292;DHT22;22327;51.208;6.418;2023-07-29T11:47:01;28.50;62.00
36292;DHT22;22327;51.208;6.418;2023-07-29T11:50:02;28.50;64.10
36292;DHT22;22327;51.208;6.418;2023-07-29T11:53:03;28.60;63.30
36292;DHT22;22327;51.208;6.418;2023-07-29T11:56:04;28.80;62.10
36292;DHT22;22327;51.208;6.418;2023-07-29T11:59:04;28.80;63.30
36292;DHT22;22327;51.208;6.418;2023-07-29T12:02:08;28.90;62.40
36292;DHT22;22327;51.208;6.418;2023-07-29T12:05:10;29.00;61.80
36292;DHT22;22327;51.208;6.418;2023-07-29T12:08:11;29.20;62.20
36292;DHT22;22327;51.208;6.418;2023-07-29T12:11:12;29.20;60.60
36292;DHT22;22327;51.208;6.418;2023-07-29T12:14:16;29.30;60.50
36292;DHT22;22327;51.208;6.418;2023-07-29T12:17:18;29.20;60.20
36292;DHT22;22327;51.208;6.418;2023-07-29T12:20:20;29.10;61.80
36292;DHT22;22327;51.208;6.418;2023-07-29T12:23:24;28.80;61.40
36292;DHT22;22327;51.208;6.418;2023-07-29T12:26:29;28.80;62.80
36292;DHT22;22327;51.208;6.418;2023-07-29T12:29:30;28.80;62.50
36292;DHT22;22327;51.208;6.418;2023-07-29T12:32:30;28.80;61.60
36292;DHT22;22327;51.208;6.418;2023-07-29T12:35:36;28.80;62.00
36292;DHT22;22327;51.208;6.418;2023-07-29T12:38:37;29.00;62.20
36292;DHT22;22327;51.208;6.418;2023-07-29T12:41:37;29.00;61.00
36292;DHT22;22327;51.208;6.418;2023-07-29T12:44:38;28.90;61.60
36292;DHT22;22327;51.208;6.418;2023-07-29T12:47:39;29.10;62.10
36292;DHT22;22327;51.208;6.418;2023-07-29T12:50:39;29.20;62.20
36292;DHT22;22327;51.208;6.418;2023-07-29T12:53:40;29.40;62.10
36292;DHT22;22327;51.208;6.418;2023-07-29T12:56:40;29.30;60.10
36292;DHT22;22327;51.208;6.418;2023-07-29T12:59:41;29.20;61.80
36292;DHT22;22327;51.208;6.418;2023-07-29T13:02:41;29.10;62.10
36292;DHT22;22327;51.208;6.418;2023-07-29T13:05:42;28.90;62.40
36292;DHT22;22327;51.208;6.418;2023-07-29T13:08:44;28.70;63.20
36292;DHT22;22327;51.208;6.418;2023-07-29T13:11:45;28.50;63.60
36292;DHT22;22327;51.208;6.418;2023-07-29T13:14:46;28.30;64.40
36292;DHT22;22327;51.208;6.418;2023-07-29T13:17:47;28.10;65.20
36292;DHT22;22327;51.208;6.418;2023-07-29T13:20:47;27.90;66.50
36292;DHT22;22327;51.208;6.418;2023-07-29T13:23:48;27.70;70.70
36292;DHT22;22327;51.208;6.418;2023-07-29T13:26:48;27.50;74.10
36292;DHT22;22327;51.208;6.418;2023-07-29T13:29:49;27.40;73.90
36292;DHT22;22327;51.208;6.418;2023-07-29T13:32:49;27.50;74.60
36292;DHT22;22327;51.208;6.418;2023-07-29T13:35:50;27.50;74.50
36292;DHT22;22327;51.208;6.418;2023-07-29T13:38:50;27.50;74.10
36292;DHT22;22327;51.208;6.418;2023-07-29T13:41:51;27.50;75.20
36292;DHT22;22327;51.208;6.418;2023-07-29T13:44:51;27.50;76.00
36292;DHT22;22327;51.208;6.418;2023-07-29T13:47:52;27.50;77.00
36292;DHT22;22327;51.208;6.418;2023-07-29T13:50:52;27.60;75.50
36292;DHT22;22327;51.208;6.418;2023-07-29T13:53:53;27.70;74.30
36292;DHT22;22327;51.208;6.418;2023-07-29T13:56:54;27.60;72.90
36292;DHT22;22327;51.208;6.418;2023-07-29T13:59:54;27.50;71.70
36292;DHT22;22327;51.208;6.418;2023-07-29T14:02:55;27.50;74.00
36292;DHT22;22327;51.208;6.418;2023-07-29T14:05:55;27.50;76.90
36292;DHT22;22327;51.208;6.418;2023-07-29T14:08:56;27.50;78.70
36292;DHT22;22327;51.208;6.418;2023-07-29T14:11:56;27.40;79.70
36292;DHT22;22327;51.208;6.418;2023-07-29T14:14:58;27.40;79.80
36292;DHT22;22327;51.208;6.418;2023-07-29T14:17:58;27.40;80.50
36292;DHT22;22327;51.208;6.418;2023-07-29T14:20:59;27.50;82.40
36292;DHT22;22327;51.208;6.418;2023-07-29T14:24:00;27.40;80.30
36292;DHT22;22327;51.208;6.418;2023-07-29T14:27:00;27.30;79.70
36292;DHT22;22327;51.208;6.418;2023-07-29T14:30:00;27.10;80.70
36292;DHT22;22327;51.208;6.418;2023-07-29T14:33:02;26.90;81.80
36292;DHT22;22327;51.208;6.418;2023-07-29T14:36:02;26.90;83.60
36292;DHT22;22327;51.208;6.418;2023-07-29T14:39:03;26.80;85.10
36292;DHT22;22327;51.208;6.418;2023-07-29T14:42:04;26.90;86.30
36292;DHT22;22327;51.208;6.418;2023-07-29T14:45:05;27.00;86.40
36292;DHT22;22327;51.208;6.418;2023-07-29T14:48:06;27.30;86.60
36292;DHT22;22327;51.208;6.418;2023-07-29T14:51:06;27.50;83.50
36292;DHT22;22327;51.208;6.418;2023-07-29T14:54:07;27.80;84.30
36292;DHT22;22327;51.208;6.418;2023-07-29T14:57:10;28.10;82.20
36292;DHT22;22327;51.208;6.418;2023-07-29T15:00:11;28.10;78.60
36292;DHT22;22327;51.208;6.418;2023-07-29T15:03:12;28.10;79.30
36292;DHT22;22327;51.208;6.418;2023-07-29T15:06:13;28.20;77.30
36292;DHT22;22327;51.208;6.418;2023-07-29T15:09:13;28.10;76.40
36292;DHT22;22327;51.208;6.418;2023-07-29T15:12:14;28.00;76.00
36292;DHT22;22327;51.208;6.418;2023-07-29T15:15:14;27.90;76.00
36292;DHT22;22327;51.208;6.418;2023-07-29T15:18:15;27.90;76.30
36292;DHT22;22327;51.208;6.418;2023-07-29T15:21:15;27.90;75.60
36292;DHT22;22327;51.208;6.418;2023-07-29T15:24:16;27.90;75.40
36292;DHT22;22327;51.208;6.418;2023-07-29T15:27:16;27.90;75.60
36292;DHT22;22327;51.208;6.418;2023-07-29T15:30:17;27.80;75.60
36292;DHT22;22327;51.208;6.418;2023-07-29T15:33:18;27.70;76.10
36292;DHT22;22327;51.208;6.418;2023-07-29T15:36:18;27.70;77.40
36292;DHT22;22327;51.208;6.418;2023-07-29T15:39:19;27.60;79.00
36292;DHT22;22327;51.208;6.418;2023-07-29T15:42:19;27.50;80.30
36292;DHT22;22327;51.208;6.418;2023-07-29T15:45:20;27.40;79.10
36292;DHT22;22327;51.208;6.418;2023-07-29T15:48:20;27.40;79.30
36292;DHT22;22327;51.208;6.418;2023-07-29T15:51:21;27.30;79.00
36292;DHT22;22327;51.208;6.418;2023-07-29T15:54:21;27.40;79.00
36292;DHT22;22327;51.208;6.418;2023-07-29T15:57:22;27.40;78.80
36292;DHT22;22327;51.208;6.418;2023-07-29T16:00:22;27.30;78.90
36292;DHT22;22327;51.208;6.418;2023-07-29T16:03:24;27.30;78.70
36292;DHT22;22327;51.208;6.418;2023-07-29T16:06:26;27.30;79.50
36292;DHT22;22327;51.208;6.418;2023-07-29T16:09:29;27.40;78.80
36292;DHT22;22327;51.208;6.418;2023-07-29T16:12:30;27.40;79.00
36292;DHT22;22327;51.208;6.418;2023-07-29T16:15:31;27.50;79.50
36292;DHT22;22327;51.208;6.418;2023-07-29T16:18:31;27.40;79.20
36292;DHT22;22327;51.208;6.418;2023-07-29T16:21:32;27.40;79.70
36292;DHT22;22327;51.208;6.418;2023-07-29T16:24:33;27.30;79.90
36292;DHT22;22327;51.208;6.418;2023-07-29T16:27:33;27.30;80.00
36292;DHT22;22327;51.208;6.418;2023-07-29T16:30:34;27.30;79.70
36292;DHT22;22327;51.208;6.418;2023-07-29T16:33:36;27.30;79.90
36292;DHT22;22327;51.208;6.418;2023-07-29T16:36:36;27.20;79.20
36292;DHT22;22327;51.208;6.418;2023-07-29T16:39:37;27.20;79.80
36292;DHT22;22327;51.208;6.418;2023-07-29T16:42:37;27.30;80.00
36292;DHT22;22327;51.208;6.418;2023-07-29T16:45:38;27.40;80.00
36292;DHT22;22327;51.208;6.418;2023-07-29T16:48:38;27.50;79.40
36292;DHT22;22327;51.208;6.418;2023-07-29T16:51:39;27.40;79.20
36292;DHT22;22327;51.208;6.418;2023-07-29T16:54:39;27.40;79.70
36292;DHT22;22327;51.208;6.418;2023-07-29T16:57:40;27.30;80.10
36292;DHT22;22327;51.208;6.418;2023-07-29T17:00:41;27.10;80.50
36292;DHT22;22327;51.208;6.418;2023-07-29T17:03:41;27.00;81.70
36292;DHT22;22327;51.208;6.418;2023-07-29T17:06:42;27.10;82.00
36292;DHT22;22327;51.208;6.418;2023-07-29T17:09:43;27.10;82.30
36292;DHT22;22327;51.208;6.418;2023-07-29T17:12:46;27.20;82.20
36292;DHT22;22327;51.208;6.418;2023-07-29T17:15:46;27.30;82.20
36292;DHT22;22327;51.208;6.418;2023-07-29T17:18:48;27.40;82.10
36292;DHT22;22327;51.208;6.418;2023-07-29T17:21:48;27.40;82.30
36292;DHT22;22327;51.208;6.418;2023-07-29T17:24:49;27.30;82.30
36292;DHT22;22327;51.208;6.418;2023-07-29T17:27:49;27.10;82.30
36292;DHT22;22327;51.208;6.418;2023-07-29T17:30:51;27.00;82.60
36292;DHT22;22327;51.208;6.418;2023-07-29T17:33:52;27.00;82.70
36292;DHT22;22327;51.208;6.418;2023-07-29T17:36:52;27.00;83.20
36292;DHT22;22327;51.208;6.418;2023-07-29T17:39:53;27.10;83.20
36292;DHT22;22327;51.208;6.418;2023-07-29T17:42:53;27.10;83.00
36292;DHT22;22327;51.208;6.418;2023-07-29T17:45:54;27.10;83.00
36292;DHT22;22327;51.208;6.418;2023-07-29T17:48:55;26.90;83.50
36292;DHT22;22327;51.208;6.418;2023-07-29T17:51:55;26.70;84.50
36292;DHT22;22327;51.208;6.418;2023-07-29T17:54:56;26.50;85.20
36292;DHT22;22327;51.208;6.418;2023-07-29T17:57:56;26.40;86.10
36292;DHT22;22327;51.208;6.418;2023-07-29T18:00:58;26.40;86.80
36292;DHT22;22327;51.208;6.418;2023-07-29T18:03:58;26.30;91.10
36292;DHT22;22327;51.208;6.418;2023-07-29T18:06:59;26.00;92.00
36292;DHT22;22327;51.208;6.418;2023-07-29T18:09:59;25.50;93.70
36292;DHT22;22327;51.208;6.418;2023-07-29T18:13:00;24.90;94.00
36292;DHT22;22327;51.208;6.418;2023-07-29T18:16:01;24.60;95.10
36292;DHT22;22327;51.208;6.418;2023-07-29T18:19:02;24.40;95.60
36292;DHT22;22327;51.208;6.418;2023-07-29T18:22:02;24.40;96.10
36292;DHT22;22327;51.208;6.418;2023-07-29T18:25:03;24.60;96.60
36292;DHT22;22327;51.208;6.418;2023-07-29T18:28:03;24.60;96.80
36292;DHT22;22327;51.208;6.418;2023-07-29T18:31:04;24.70;97.30
36292;DHT22;22327;51.208;6.418;2023-07-29T18:34:05;24.60;97.50
36292;DHT22;22327;51.208;6.418;2023-07-29T18:37:05;24.70;97.70
36292;DHT22;22327;51.208;6.418;2023-07-29T18:40:06;24.80;97.30
36292;DHT22;22327;51.208;6.418;2023-07-29T18:43:07;24.80;97.10
36292;DHT22;22327;51.208;6.418;2023-07-29T18:46:09;24.90;96.80
36292;DHT22;22327;51.208;6.418;2023-07-29T18:49:10;25.00;96.50
36292;DHT22;22327;51.208;6.418;2023-07-29T18:52:10;25.10;96.10
36292;DHT22;22327;51.208;6.418;2023-07-29T18:55:11;25.00;95.90
36292;DHT22;22327;51.208;6.418;2023-07-29T18:58:12;25.00;95.90
36292;DHT22;22327;51.208;6.418;2023-07-29T19:01:12;24.90;95.70
36292;DHT22;22327;51.208;6.418;2023-07-29T19:04:13;24.80;95.60
36292;DHT22;22327;51.208;6.418;2023-07-29T19:07:14;24.70;95.70
36292;DHT22;22327;51.208;6.418;2023-07-29T19:10:14;24.70;95.80
36292;DHT22;22327;51.208;6.418;2023-07-29T19:13:15;24.50;96.00